Time;durP1;ratioP1;P1;durP2;ratioP2;P2;SDS_P1;SDS_P2;PMS_P1;PMS_P2;Temp;Humidity;BMP_temperature;BMP_pressure;BME280_temperature;BME280_humidity;BME280_pressure;Samples;Min_cycle;Max_cycle;Signal;HPM_P1;HPM_P2
2023/02/06 00:02:38;;;;;;;114.30;47.40;;;;;;;-5.41;81.45;102965.59;105208;1266;99050;-78
2023/02/06 00:05:23;;;;;;;110.00;47.60;;;;;;;-5.42;81.49;102969.07;105050;1263;98582;-77
2023/02/06 00:08:09;;;;;;;109.70;48.60;;;;;;;-5.42;81.56;102972.90;105139;1267;99269;-77
2023/02/06 00:10:54;;;;;;;117.60;51.10;;;;;;;-5.40;81.94;102968.69;105149;1267;98072;-76
2023/02/06 00:13:40;;;;;;;117.30;52.60;;;;;;;-5.36;82.36;102967.58;105172;1264;101373;-78
2023/02/06 00:16:31;;;;;;;121.90;51.60;;;;;;;-5.32;82.70;102972.02;105064;1266;99660;-77
2023/02/06 00:19:16;;;;;;;109.60;50.00;;;;;;;-5.30;82.78;102973.55;105064;1265;97966;-75
2023/02/06 00:22:03;;;;;;;117.00;54.80;;;;;;;-5.27;82.98;102967.59;105102;1264;98160;-76
2023/02/06 00:24:48;;;;;;;117.20;53.10;;;;;;;-5.25;83.10;102968.23;105335;1267;97978;-76
2023/02/06 00:27:34;;;;;;;134.30;53.40;;;;;;;-5.22;83.32;102971.30;105101;1267;102257;-76
2023/02/06 00:30:19;;;;;;;112.20;50.20;;;;;;;-5.20;83.17;102967.27;105103;1267;99152;-76
2023/02/06 00:33:05;;;;;;;107.90;52.10;;;;;;;-5.21;83.33;102964.32;105001;1265;98495;-77
2023/02/06 00:35:51;;;;;;;116.90;50.20;;;;;;;-5.19;83.76;102971.59;105166;1262;97978;-77
2023/02/06 00:38:37;;;;;;;106.70;50.10;;;;;;;-5.15;83.98;102974.66;105056;1262;98486;-78
2023/02/06 00:41:22;;;;;;;122.90;52.90;;;;;;;-5.13;83.96;102964.52;105116;1265;101335;-76
2023/02/06 00:44:09;;;;;;;118.30;51.00;;;;;;;-5.13;83.95;102965.92;105088;1266;100480;-78
2023/02/06 00:46:55;;;;;;;111.70;50.20;;;;;;;-5.11;84.07;102968.13;105064;1264;99114;-77
2023/02/06 00:49:40;;;;;;;104.80;49.80;;;;;;;-5.10;84.14;102966.88;105163;1264;98490;-76
2023/02/06 00:52:26;;;;;;;108.60;52.30;;;;;;;-5.10;83.88;102964.64;105052;1267;97960;-77
2023/02/06 00:55:12;;;;;;;118.90;52.10;;;;;;;-5.10;83.80;102962.38;105116;1263;101369;-78
2023/02/06 00:57:57;;;;;;;110.70;52.60;;;;;;;-5.10;83.82;102962.88;104917;1262;99158;-76
2023/02/06 01:00:43;;;;;;;114.70;52.70;;;;;;;-5.09;83.68;102961.64;105110;1277;98997;-76
2023/02/06 01:03:29;;;;;;;120.70;51.10;;;;;;;-5.10;83.59;102963.25;104973;1267;98087;-77
2023/02/06 01:06:14;;;;;;;113.70;53.80;;;;;;;-5.11;83.37;102966.21;105066;1264;98041;-77
2023/02/06 01:08:59;;;;;;;112.90;53.20;;;;;;;-5.12;83.31;102960.66;105068;1265;104533;-77
2023/02/06 01:11:46;;;;;;;116.10;52.10;;;;;;;-5.13;83.39;102952.31;105171;1267;99154;-76
2023/02/06 01:14:32;;;;;;;114.70;51.90;;;;;;;-5.13;83.31;102947.98;105066;1264;98041;-77
2023/02/06 01:17:18;;;;;;;123.40;54.40;;;;;;;-5.15;83.29;102939.48;105031;1265;98024;-78
2023/02/06 01:20:06;;;;;;;116.40;52.70;;;;;;;-5.15;83.47;102938.09;105066;1262;99762;-77
2023/02/06 01:22:52;;;;;;;109.10;51.20;;;;;;;-5.18;83.18;102936.05;105047;1267;101413;-77
2023/02/06 01:25:37;;;;;;;122.90;52.10;;;;;;;-5.20;83.24;102937.64;105054;1263;99111;-77
2023/02/06 01:28:23;;;;;;;126.20;54.50;;;;;;;-5.22;83.39;102937.70;105111;1266;98047;-77
2023/02/06 01:31:13;;;;;;;113.10;51.00;;;;;;;-5.25;83.21;102943.52;105122;1266;97919;-78
2023/02/06 01:33:59;;;;;;;116.10;53.10;;;;;;;-5.27;83.13;102940.41;105127;1266;97932;-77
2023/02/06 01:36:45;;;;;;;114.60;50.70;;;;;;;-5.29;83.01;102947.77;105128;1262;102089;-77
2023/02/06 01:39:31;;;;;;;117.50;52.90;;;;;;;-5.32;82.84;102951.65;105049;1267;99199;-76
2023/02/06 01:42:17;;;;;;;115.00;52.50;;;;;;;-5.35;82.77;102949.45;104967;1262;98985;-76
2023/02/06 01:45:22;;;;;;;117.00;56.20;;;;;;;-5.37;83.02;102942.52;105058;1267;98002;-77
2023/02/06 01:48:13;;;;;;;122.80;55.70;;;;;;;-5.38;83.31;102946.90;105169;1262;98925;-76
2023/02/06 01:51:02;;;;;;;116.30;54.10;;;;;;;-5.38;83.54;102946.90;105001;1265;102259;-76
2023/02/06 01:53:53;;;;;;;130.10;53.20;;;;;;;-5.39;83.53;102939.43;104693;1266;100575;-76
2023/02/06 01:56:40;;;;;;;;;;;;;;;-5.38;83.81;102937.15;104814;1267;97949;-77
2023/02/06 01:59:26;;;;;;;119.50;50.40;;;;;;;-5.38;83.63;102942.20;104755;1262;97955;-77
2023/02/06 02:02:13;;;;;;;122.40;53.40;;;;;;;-5.37;83.79;102936.42;104776;1262;98627;-77
2023/02/06 02:05:02;;;;;;;128.40;55.70;;;;;;;-5.37;83.79;102932.08;104738;1262;101389;-77
2023/02/06 02:08:13;;;;;;;136.10;58.80;;;;;;;-5.38;83.55;102938.54;105268;1267;99882;-78
2023/02/06 02:11:02;;;;;;;130.10;54.10;;;;;;;-5.40;83.50;102945.37;104793;1262;98870;-78
2023/02/06 02:13:50;;;;;;;128.00;55.90;;;;;;;-5.42;83.50;102947.66;104958;1266;97958;-78
2023/02/06 02:16:59;;;;;;;125.80;57.00;;;;;;;-5.46;83.61;102945.64;105035;1267;97799;-77
2023/02/06 02:20:31;;;;;;;135.40;58.40;;;;;;;-5.49;83.76;102951.98;105057;1262;101393;-78
2023/02/06 02:23:24;;;;;;;132.70;57.90;;;;;;;-5.50;83.96;102952.86;105037;1264;100299;-78
2023/02/06 02:26:35;;;;;;;128.90;56.70;;;;;;;-5.51;84.12;102958.08;105126;1268;97997;-77
2023/02/06 02:30:00;;;;;;;132.20;57.50;;;;;;;-5.51;84.34;102952.34;105041;1265;98074;-76
2023/02/06 02:32:54;;;;;;;138.50;59.90;;;;;;;-5.50;84.82;102946.94;105131;1263;97980;-78
2023/02/06 02:36:06;;;;;;;124.00;55.00;;;;;;;-5.47;84.99;102949.67;105040;1269;101361;-78
2023/02/06 02:39:07;;;;;;;133.80;56.70;;;;;;;-5.44;85.13;102950.30;105177;1267;100227;-76
2023/02/06 02:42:10;;;;;;;125.10;57.60;;;;;;;-5.40;85.26;102950.41;105111;1265;99117;-77
2023/02/06 02:45:05;;;;;;;124.70;55.40;;;;;;;-5.38;85.33;102952.80;105015;1262;99576;-78
2023/02/06 02:48:02;;;;;;;130.70;56.40;;;;;;;-5.37;85.35;102957.31;105103;1262;98397;-78
2023/02/06 02:50:49;;;;;;;125.40;52.60;;;;;;;-5.36;85.49;102960.25;105139;1262;101323;-77
2023/02/06 02:53:36;;;;;;;127.50;54.40;;;;;;;-5.37;85.57;102954.17;104981;1267;99116;-78
2023/02/06 02:56:23;;;;;;;127.40;54.10;;;;;;;-5.37;85.80;102951.23;105178;1262;99168;-77
2023/02/06 02:59:15;;;;;;;129.50;54.00;;;;;;;-5.35;85.94;102950.66;105039;1262;99234;-79
2023/02/06 03:02:06;;;;;;;131.20;57.40;;;;;;;-5.31;86.07;102951.63;105041;1267;98591;-75
2023/02/06 03:05:00;;;;;;;120.00;51.30;;;;;;;-5.28;86.22;102945.48;105136;1266;103562;-77
2023/02/06 03:08:10;;;;;;;130.90;54.60;;;;;;;-5.28;86.13;102945.14;105113;1262;99068;-77
2023/02/06 03:11:14;;;;;;;123.40;56.00;;;;;;;-5.27;86.32;102941.46;105100;1262;98876;-77
2023/02/06 03:14:14;;;;;;;131.10;51.90;;;;;;;-5.27;86.50;102936.75;105145;1262;97973;-78
2023/02/06 03:17:05;;;;;;;120.50;52.30;;;;;;;-5.30;86.43;102930.71;105134;1266;97980;-77
2023/02/06 03:19:54;;;;;;;128.20;52.80;;;;;;;-5.30;86.40;102934.20;105159;1267;101423;-76
2023/02/06 03:22:43;;;;;;;109.30;46.90;;;;;;;-5.30;86.48;102932.30;105078;1267;99136;-78
2023/02/06 03:25:39;;;;;;;123.80;52.30;;;;;;;-5.30;86.62;102930.02;105116;1262;98006;-78
2023/02/06 03:28:30;;;;;;;108.10;48.50;;;;;;;-5.28;86.69;102934.34;105326;1267;97897;-77
2023/02/06 03:31:25;;;;;;;121.10;48.30;;;;;;;-5.27;86.74;102935.19;105195;1262;97909;-77
2023/02/06 03:34:21;;;;;;;114.00;49.20;;;;;;;-5.25;87.02;102934.27;105118;1265;102723;-77
2023/02/06 03:37:07;;;;;;;121.80;51.40;;;;;;;-5.24;87.19;102936.00;105086;1262;99103;-77
2023/02/06 03:39:53;;;;;;;135.20;54.10;;;;;;;-5.23;87.12;102937.55;105122;1267;98088;-77
2023/02/06 03:42:42;;;;;;;131.40;53.10;;;;;;;-5.21;87.51;102939.59;105153;1267;98074;-78
2023/02/06 03:45:38;;;;;;;128.20;52.40;;;;;;;-5.20;87.58;102937.99;105044;1269;97986;-78
2023/02/06 03:48:36;;;;;;;118.10;52.10;;;;;;;-5.19;87.66;102939.91;105179;1266;102677;-78
2023/02/06 03:51:32;;;;;;;133.30;53.20;;;;;;;-5.18;87.69;102933.78;105056;1264;99368;-78
2023/02/06 03:54:22;;;;;;;137.10;54.60;;;;;;;-5.16;87.87;102934.10;105139;1262;100080;-78
2023/02/06 03:57:11;;;;;;;128.80;54.10;;;;;;;-5.15;88.09;102932.68;105156;1266;98099;-77
2023/02/06 03:59:57;;;;;;;146.00;56.50;;;;;;;-5.13;88.03;102926.20;105106;1262;98522;-78
2023/02/06 04:02:46;;;;;;;143.90;57.80;;;;;;;-5.12;87.91;102921.64;105215;1262;101343;-76
2023/02/06 04:05:31;;;;;;;146.10;58.20;;;;;;;-5.09;88.03;102920.73;105138;1267;99915;-76
2023/02/06 04:08:17;;;;;;;157.70;59.70;;;;;;;-5.08;88.05;102920.70;105127;1262;98449;-77
2023/02/06 04:11:02;;;;;;;143.00;60.00;;;;;;;-5.06;88.03;102922.05;105092;1267;99253;-77
2023/02/06 04:13:48;;;;;;;147.30;60.60;;;;;;;-5.05;88.04;102912.61;105161;1262;97887;-78
2023/02/06 04:16:34;;;;;;;142.10;56.20;;;;;;;-5.03;88.20;102909.27;105122;1263;101403;-77
2023/02/06 04:19:20;;;;;;;142.40;58.10;;;;;;;-5.02;88.15;102915.01;105126;1266;99088;-76
2023/02/06 04:22:05;;;;;;;132.40;56.60;;;;;;;-5.02;88.06;102916.90;105173;1265;99005;-76
2023/02/06 04:24:51;;;;;;;138.00;58.50;;;;;;;-5.01;88.00;102919.32;105165;1266;97990;-77
2023/02/06 04:27:36;;;;;;;128.60;54.80;;;;;;;-4.98;88.06;102917.70;105137;1262;98498;-77
2023/02/06 04:30:22;;;;;;;137.00;53.90;;;;;;;-4.96;87.88;102916.09;105128;1266;102621;-77
2023/02/06 04:33:07;;;;;;;136.30;55.30;;;;;;;-4.96;87.95;102911.74;105117;1262;99256;-77
2023/02/06 04:35:53;;;;;;;129.50;53.40;;;;;;;-4.95;87.99;102912.07;105123;1266;98069;-76
2023/02/06 04:38:38;;;;;;;135.00;56.00;;;;;;;-4.94;87.96;102917.60;105054;1265;97981;-77
2023/02/06 04:41:24;;;;;;;137.20;53.60;;;;;;;-4.93;87.72;102916.90;105150;1262;98548;-76
2023/02/06 04:44:10;;;;;;;137.70;55.50;;;;;;;-4.94;87.71;102916.40;105146;1264;102679;-76
2023/02/06 04:46:56;;;;;;;136.40;55.90;;;;;;;-4.94;87.67;102913.27;105062;1262;99223;-77
2023/02/06 04:49:41;;;;;;;136.20;53.40;;;;;;;-4.93;87.71;102912.89;105182;1264;98490;-76
2023/02/06 04:52:27;;;;;;;132.50;54.50;;;;;;;-4.91;87.79;102918.08;105130;1266;98134;-75
2023/02/06 04:55:13;;;;;;;123.20;52.80;;;;;;;-4.89;87.86;102921.35;105020;1267;98333;-77
2023/02/06 04:57:59;;;;;;;113.10;50.90;;;;;;;-4.89;88.06;102919.27;105073;1262;101342;-77
2023/02/06 05:00:45;;;;;;;125.30;55.00;;;;;;;-4.91;88.23;102920.69;105163;1267;100923;-76
2023/02/06 05:03:31;;;;;;;133.80;56.10;;;;;;;-4.91;88.45;102919.64;105133;1266;98023;-75
2023/02/06 05:06:17;;;;;;;128.50;55.80;;;;;;;-4.88;88.77;102924.80;105180;1267;97924;-77
2023/02/06 05:09:03;;;;;;;132.50;58.90;;;;;;;-4.84;88.84;102926.64;105131;1263;98539;-77
2023/02/06 05:11:49;;;;;;;130.70;55.10;;;;;;;-4.82;88.91;102933.73;105095;1265;101462;-76
2023/02/06 05:14:34;;;;;;;137.50;57.20;;;;;;;-4.80;88.88;102937.53;105157;1266;100048;-76
2023/02/06 05:17:20;;;;;;;135.10;55.60;;;;;;;-4.79;88.68;102938.39;105075;1265;98911;-77
2023/02/06 05:20:06;;;;;;;133.10;56.70;;;;;;;-4.80;88.66;102934.74;105147;1267;98008;-77
2023/02/06 05:22:52;;;;;;;130.80;55.50;;;;;;;-4.80;88.52;102932.83;105145;1265;99670;-77
2023/02/06 05:25:37;;;;;;;131.00;56.80;;;;;;;-4.80;88.48;102934.57;105161;1262;101410;-77
2023/02/06 05:28:23;;;;;;;132.60;56.20;;;;;;;-4.80;88.50;102938.41;105200;1262;100579;-76
2023/02/06 05:31:09;;;;;;;135.10;56.40;;;;;;;-4.79;88.50;102944.48;105126;1268;99946;-78
2023/02/06 05:33:54;;;;;;;132.80;56.80;;;;;;;-4.78;88.51;102943.06;105131;1262;98717;-77
2023/02/06 05:36:40;;;;;;;135.70;58.40;;;;;;;-4.77;88.44;102943.23;105256;1267;98069;-77
2023/02/06 05:39:26;;;;;;;131.20;58.40;;;;;;;-4.77;88.31;102946.35;104971;1265;102673;-76
2023/02/06 05:42:11;;;;;;;124.20;57.00;;;;;;;-4.76;88.33;102944.07;104801;1262;100412;-75
2023/02/06 05:44:57;;;;;;;122.50;55.70;;;;;;;-4.76;88.35;102950.86;104769;1262;99012;-76
2023/02/06 05:47:42;;;;;;;129.80;59.50;;;;;;;-4.76;88.26;102946.85;104988;1267;98075;-77
2023/02/06 05:50:28;;;;;;;135.30;56.90;;;;;;;-4.76;88.29;102943.37;105204;1266;98427;-77
2023/02/06 05:53:15;;;;;;;127.00;56.60;;;;;;;-4.76;88.10;102945.11;105148;1264;102634;-77
2023/02/06 05:56:00;;;;;;;131.90;57.90;;;;;;;-4.78;87.98;102945.84;105311;1266;99225;-78
2023/02/06 05:58:45;;;;;;;126.70;53.30;;;;;;;-4.79;87.82;102950.05;105097;1262;100171;-76
2023/02/06 06:01:31;;;;;;;130.90;54.80;;;;;;;-4.81;87.65;102947.65;105156;1267;98142;-77
2023/02/06 06:04:17;;;;;;;142.10;60.10;;;;;;;-4.81;87.81;102945.55;105142;1265;99228;-77
2023/02/06 06:07:03;;;;;;;126.00;57.10;;;;;;;-4.80;87.78;102946.77;105165;1264;101444;-76
2023/02/06 06:09:48;;;;;;;139.90;59.80;;;;;;;-4.80;87.77;102950.42;105110;1262;99555;-76
2023/02/06 06:12:34;;;;;;;138.30;61.40;;;;;;;-4.76;87.90;102951.20;105087;1266;99048;-77
2023/02/06 06:15:19;;;;;;;126.70;57.50;;;;;;;-4.74;87.70;102957.44;105059;1267;98065;-77
2023/02/06 06:18:05;;;;;;;142.20;62.90;;;;;;;-4.73;87.69;102953.59;105115;1262;98538;-75
2023/02/06 06:20:52;;;;;;;138.20;61.30;;;;;;;-4.71;87.54;102952.34;105065;1267;101512;-76
2023/02/06 06:23:38;;;;;;;131.40;57.90;;;;;;;-4.71;87.61;102956.31;105040;1262;99221;-76
2023/02/06 06:26:23;;;;;;;142.10;60.40;;;;;;;-4.70;87.66;102957.35;105200;1266;99002;-76
2023/02/06 06:29:09;;;;;;;127.50;58.60;;;;;;;-4.71;87.52;102956.50;105135;1267;98080;-77
2023/02/06 06:31:55;;;;;;;145.30;64.40;;;;;;;-4.70;87.62;102956.14;105246;1262;98546;-76
2023/02/06 06:34:40;;;;;;;154.00;67.80;;;;;;;-4.68;87.75;102963.23;105152;1262;101371;-78
2023/02/06 06:37:26;;;;;;;150.60;65.90;;;;;;;-4.66;87.73;102965.84;105128;1265;99131;-77
2023/02/06 06:40:12;;;;;;;154.30;65.70;;;;;;;-4.66;87.64;102962.50;105140;1265;98813;-75
2023/02/06 06:42:57;;;;;;;163.00;74.00;;;;;;;-4.66;87.59;102957.61;105145;1268;97984;-76
2023/02/06 06:45:43;;;;;;;162.60;73.10;;;;;;;-4.65;87.84;102956.55;105183;1262;98400;-77
2023/02/06 06:48:29;;;;;;;175.50;73.60;;;;;;;-4.64;87.77;102953.92;105210;1266;101328;-77
2023/02/06 06:51:14;;;;;;;157.30;71.10;;;;;;;-4.63;87.69;102951.80;105184;1262;99131;-76
2023/02/06 06:54:00;;;;;;;149.80;67.70;;;;;;;-4.59;88.02;102956.07;105117;1267;99006;-76
2023/02/06 06:56:45;;;;;;;151.90;67.10;;;;;;;-4.56;88.10;102956.71;105160;1267;97970;-77
2023/02/06 06:59:31;;;;;;;160.70;67.70;;;;;;;-4.53;88.24;102959.78;105214;1267;99122;-76
2023/02/06 07:02:17;;;;;;;160.60;71.40;;;;;;;-4.49;88.29;102957.41;105102;1262;102634;-76
2023/02/06 07:05:03;;;;;;;162.20;70.10;;;;;;;-4.45;88.32;102957.50;105239;1266;100292;-78
2023/02/06 07:07:49;;;;;;;156.60;70.30;;;;;;;-4.41;88.50;102957.41;105129;1262;98065;-77
2023/02/06 07:10:35;;;;;;;164.00;71.00;;;;;;;-4.36;88.43;102958.02;105129;1267;98549;-77
2023/02/06 07:13:20;;;;;;;161.20;70.10;;;;;;;-4.32;88.41;102958.08;105137;1267;98525;-76
2023/02/06 07:16:06;;;;;;;173.90;72.90;;;;;;;-4.29;88.29;102959.95;105074;1267;102628;-76
2023/02/06 07:18:51;;;;;;;179.10;72.60;;;;;;;-4.26;88.42;102964.59;105108;1267;99181;-77
2023/02/06 07:21:37;;;;;;;161.90;73.90;;;;;;;-4.23;88.54;102963.10;105139;1262;99006;-77
2023/02/06 07:24:23;;;;;;;170.60;73.70;;;;;;;-4.20;88.64;102963.57;105122;1266;97994;-77
2023/02/06 07:27:08;;;;;;;168.40;74.20;;;;;;;-4.15;88.65;102966.42;105207;1267;100202;-77
2023/02/06 07:29:54;;;;;;;188.20;77.50;;;;;;;-4.09;88.86;102970.64;105194;1265;102687;-76
2023/02/06 07:32:39;;;;;;;172.20;72.40;;;;;;;-4.04;88.97;102969.46;105046;1262;99257;-76
2023/02/06 07:35:25;;;;;;;197.10;79.50;;;;;;;-4.01;88.79;102969.21;105153;1262;98772;-75
2023/02/06 07:38:10;;;;;;;229.10;91.10;;;;;;;-3.99;88.83;102967.93;105088;1266;97996;-78
2023/02/06 07:41:01;;;;;;;216.40;88.30;;;;;;;-3.96;88.76;102972.73;105308;1267;97830;-77
2023/02/06 07:43:47;;;;;;;181.30;78.70;;;;;;;-3.94;88.97;102974.09;105237;1266;101335;-77
2023/02/06 07:46:33;;;;;;;173.30;69.30;;;;;;;-3.91;89.09;102980.48;105145;1268;100319;-76
2023/02/06 07:49:19;;;;;;;164.00;69.30;;;;;;;-3.90;88.91;102987.45;105098;1262;99093;-76
2023/02/06 07:52:04;;;;;;;163.30;68.30;;;;;;;-3.88;88.92;102988.27;105189;1262;98080;-76
2023/02/06 07:54:50;;;;;;;157.20;66.50;;;;;;;-3.84;88.97;102994.29;105074;1262;98634;-76
2023/02/06 07:57:36;;;;;;;160.50;67.60;;;;;;;-3.77;88.92;102995.19;105103;1262;102615;-75
2023/02/06 08:00:21;;;;;;;161.00;77.90;;;;;;;-3.73;88.93;102996.64;104913;1262;100112;-76
2023/02/06 08:03:07;;;;;;;158.90;70.60;;;;;;;-3.68;88.80;102993.70;104916;1262;99009;-77
2023/02/06 08:05:52;;;;;;;146.80;64.60;;;;;;;-3.65;88.80;102993.10;104741;1266;97991;-77
2023/02/06 08:08:38;;;;;;;135.40;63.30;;;;;;;-3.61;88.82;102991.96;104766;1262;98034;-76
2023/02/06 08:11:26;;;;;;;141.00;64.40;;;;;;;-3.57;88.79;102983.48;104890;1264;102624;-76
2023/02/06 08:14:12;;;;;;;141.80;62.00;;;;;;;-3.54;88.65;102983.90;105117;1266;99105;-76
2023/02/06 08:16:57;;;;;;;155.20;74.70;;;;;;;-3.51;88.60;102981.57;105087;1262;98005;-76
2023/02/06 08:19:43;;;;;;;172.80;75.70;;;;;;;-3.47;88.68;102984.27;105168;1275;97903;-76
2023/02/06 08:22:29;;;;;;;170.00;75.60;;;;;;;-3.44;88.55;102985.41;105102;1262;97971;-77
2023/02/06 08:25:14;;;;;;;182.70;86.50;;;;;;;-3.43;88.51;102985.55;105085;1266;101347;-77
2023/02/06 08:28:00;;;;;;;202.40;90.50;;;;;;;-3.40;88.54;102984.08;105179;1265;100131;-78
2023/02/06 08:30:45;;;;;;;158.90;71.80;;;;;;;-3.39;88.55;102977.41;105065;1268;98476;-77
2023/02/06 08:33:31;;;;;;;142.80;60.10;;;;;;;-3.39;88.48;102972.70;105152;1262;97897;-78
2023/02/06 08:36:18;;;;;;;143.20;60.10;;;;;;;-3.39;88.49;102969.21;105159;1262;98541;-78
2023/02/06 08:39:04;;;;;;;287.20;108.90;;;;;;;-3.34;89.30;102966.29;105033;1262;102423;-77
2023/02/06 08:41:50;;;;;;;285.80;109.80;;;;;;;-3.28;89.24;102969.77;105739;1267;99084;-76
2023/02/06 08:44:35;;;;;;;292.50;122.30;;;;;;;-3.24;88.98;102971.94;105104;1263;99520;-77
2023/02/06 08:47:20;;;;;;;354.70;153.50;;;;;;;-3.19;88.95;102968.31;105052;1262;97917;-77
2023/02/06 08:50:06;;;;;;;185.20;79.50;;;;;;;-3.13;88.98;102966.05;105094;1262;99279;-77
2023/02/06 08:52:52;;;;;;;185.10;74.80;;;;;;;-3.07;89.04;102966.23;105068;1262;101365;-77
2023/02/06 08:55:37;;;;;;;168.50;73.50;;;;;;;-3.05;88.88;102969.88;105132;1266;100079;-79
2023/02/06 08:58:23;;;;;;;150.20;64.60;;;;;;;-3.02;89.02;102975.38;106399;1264;97773;-85
2023/02/06 09:01:15;;;;;;;137.10;61.50;;;;;;;-2.96;89.24;102976.41;105857;1268;98757;-83
2023/02/06 09:04:05;;;;;;;165.10;69.80;;;;;;;-2.90;89.08;102980.09;105970;1262;98520;-81
2023/02/06 09:06:50;;;;;;;134.80;58.10;;;;;;;-2.80;89.39;102986.30;106291;1262;102621;-80
2023/02/06 09:09:36;;;;;;;138.00;57.50;;;;;;;-2.74;89.09;102986.96;105379;1268;100329;-76
2023/02/06 09:12:21;;;;;;;141.50;62.60;;;;;;;-2.69;88.84;102986.81;105021;1262;99018;-80
2023/02/06 09:15:08;;;;;;;152.70;70.60;;;;;;;-2.63;88.97;102985.77;105001;1264;98697;-78
2023/02/06 09:17:53;;;;;;;153.20;65.90;;;;;;;-2.55;89.10;102984.48;104985;1266;97887;-74
2023/02/06 09:20:48;;;;;;;121.70;52.10;;;;;;;-2.46;88.96;102986.50;105179;1262;101356;-88
2023/02/06 09:23:52;;;;;;;129.20;57.60;;;;;;;-2.45;88.53;102992.42;106434;1262;99078;-89
2023/02/06 09:26:48;;;;;;;148.50;64.70;;;;;;;-2.46;88.45;102993.31;105297;1262;98021;-78
2023/02/06 09:29:37;;;;;;;165.10;67.50;;;;;;;-2.39;88.79;102992.40;106181;1263;98462;-84
2023/02/06 09:32:23;;;;;;;152.80;67.70;;;;;;;-2.31;88.70;102988.83;105761;1262;99609;-84
2023/02/06 09:35:08;;;;;;;162.60;69.00;;;;;;;-2.25;88.50;102987.08;106103;1262;101342;-84
2023/02/06 09:37:54;;;;;;;162.70;67.60;;;;;;;-2.19;88.43;102991.09;106070;1262;99104;-85
2023/02/06 09:40:40;;;;;;;142.60;62.70;;;;;;;-2.13;88.45;102991.09;106014;1267;98490;-87
2023/02/06 09:43:29;;;;;;;150.60;66.70;;;;;;;-2.07;88.40;102988.25;105451;1263;98050;-77
2023/02/06 09:46:20;;;;;;;240.40;95.70;;;;;;;-2.00;88.45;102990.49;105319;1267;98540;-83
2023/02/06 09:49:13;;;;;;;212.30;88.00;;;;;;;-1.92;88.37;102992.16;105928;1262;101357;-80
2023/02/06 09:52:14;;;;;;;161.00;73.20;;;;;;;-1.84;88.24;102991.35;105908;1266;100350;-79
2023/02/06 09:55:32;;;;;;;;;;;;;;;-1.77;88.11;102988.84;105843;1266;99312;-80
2023/02/06 09:58:33;;;;;;;180.90;77.80;;;;;;;-1.73;87.83;102988.73;105868;1266;98667;-77
2023/02/06 10:01:41;;;;;;;;;;;;;;;-1.66;88.27;102983.41;106089;1262;97782;-88
2023/02/06 10:04:43;;;;;;;197.50;91.80;;;;;;;-1.61;87.68;102982.19;106217;1262;102592;-86
2023/02/06 10:07:57;;;;;;;173.20;79.60;;;;;;;-1.58;87.63;102982.09;106173;1262;99800;-84
2023/02/06 10:10:59;;;;;;;160.00;77.20;;;;;;;-1.47;87.87;102988.39;105816;1262;97988;-83
2023/02/06 10:13:54;;;;;;;150.00;72.50;;;;;;;-1.37;87.89;102993.11;106162;1262;97234;-81
2023/02/06 10:16:58;;;;;;;157.30;73.00;;;;;;;-1.27;87.91;102995.08;105893;1262;97937;-84
2023/02/06 10:19:48;;;;;;;162.70;76.00;;;;;;;-1.21;87.55;102999.41;106104;1269;102710;-81
2023/02/06 10:23:22;;;;;;;169.00;85.20;;;;;;;-1.23;87.17;102998.94;105954;1263;100834;-83
2023/02/06 10:26:18;;;;;;;135.60;68.90;;;;;;;-1.21;87.33;103000.96;106078;1264;99838;-86
2023/02/06 10:29:03;;;;;;;154.80;72.30;;;;;;;-1.21;87.13;103001.16;105664;1262;98036;-83
2023/02/06 10:32:17;;;;;;;156.00;69.60;;;;;;;-1.19;87.33;102998.09;105932;1263;97794;-88
2023/02/06 10:35:14;;;;;;;158.80;75.50;;;;;;;-1.14;87.37;102991.95;105789;1262;101374;-84
2023/02/06 10:38:24;;;;;;;138.90;70.80;;;;;;;-1.06;87.62;102987.48;105661;1267;101022;-86
2023/02/06 10:41:26;;;;;;;;;;;;;;;;;;;;;
2023/02/06 10:44:33;;;;;;;144.30;71.60;;;;;;;-0.88;87.67;102985.95;106106;1262;98115;-82
2023/02/06 10:47:35;;;;;;;148.80;68.40;;;;;;;-0.80;87.64;102980.02;105677;1262;98488;-76
2023/02/06 10:50:31;;;;;;;131.80;65.80;;;;;;;-0.71;87.66;102975.30;104986;1262;103732;-74
2023/02/06 10:53:29;;;;;;;146.30;68.70;;;;;;;-0.62;87.59;102968.48;104981;1264;99070;-74
2023/02/06 10:56:19;;;;;;;141.20;67.30;;;;;;;-0.56;87.37;102968.77;104722;1262;98950;-75
2023/02/06 10:59:14;;;;;;;150.80;73.00;;;;;;;-0.48;87.62;102963.22;104847;1268;98054;-76
2023/02/06 11:02:25;;;;;;;147.60;70.80;;;;;;;-0.38;87.65;102962.28;104726;1262;98014;-76
2023/02/06 11:05:20;;;;;;;150.50;83.10;;;;;;;-0.34;87.06;102964.06;106726;1266;101497;-74
2023/02/06 11:08:12;;;;;;;134.90;68.10;;;;;;;-0.31;87.05;102965.16;104732;1262;99431;-76
2023/02/06 11:10:57;;;;;;;154.20;69.70;;;;;;;-0.28;86.96;102977.69;104776;1267;98042;-75
2023/02/06 11:13:47;;;;;;;130.50;63.40;;;;;;;-0.26;86.96;102988.34;104775;1268;97996;-75
2023/02/06 11:16:36;;;;;;;138.20;64.90;;;;;;;-0.25;86.98;102992.66;104845;1265;97788;-75
2023/02/06 11:19:29;;;;;;;136.30;62.70;;;;;;;-0.22;87.14;103005.87;105377;1262;102625;-76
2023/02/06 11:22:25;;;;;;;135.60;63.90;;;;;;;-0.17;87.29;103015.67;104980;1262;99093;-75
2023/02/06 11:25:30;;;;;;;130.10;62.40;;;;;;;-0.18;86.79;103013.27;104808;1262;97972;-75
2023/02/06 11:28:19;;;;;;;145.70;65.80;;;;;;;-0.20;86.92;103011.21;104929;1268;98086;-76
2023/02/06 11:31:08;;;;;;;149.90;66.30;;;;;;;-0.19;86.98;103012.09;105039;1267;99644;-76
2023/02/06 11:33:55;;;;;;;151.70;69.00;;;;;;;-0.17;87.05;103009.02;104749;1269;102627;-76
2023/02/06 11:36:41;;;;;;;169.80;69.70;;;;;;;-0.13;87.76;103004.46;105442;1268;100324;-76
2023/02/06 11:39:33;;;;;;;154.50;70.00;;;;;;;-0.09;87.79;102999.21;104811;1268;99310;-75
2023/02/06 11:42:21;;;;;;;164.90;79.20;;;;;;;-0.08;87.65;102995.67;104932;1266;97954;-76
2023/02/06 11:45:29;;;;;;;144.60;68.00;;;;;;;-0.06;87.69;102994.89;105005;1268;97971;-76
2023/02/06 11:48:41;;;;;;;137.20;63.40;;;;;;;-0.05;87.50;102996.79;104765;1267;103051;-75
2023/02/06 11:51:48;;;;;;;140.80;66.20;;;;;;;-0.04;87.19;102995.17;104725;1266;99133;-76
2023/02/06 11:54:34;;;;;;;138.40;60.00;;;;;;;-0.06;87.37;102992.96;104842;1262;98947;-76
2023/02/06 11:57:43;;;;;;;130.80;63.20;;;;;;;-0.02;87.37;102991.39;105446;1267;97972;-93
2023/02/06 12:00:51;;;;;;;126.40;61.10;;;;;;;-0.02;87.00;102993.85;105762;1268;99557;-79
2023/02/06 12:03:49;;;;;;;134.90;61.20;;;;;;;-0.03;87.00;102992.80;105070;1265;102102;-77
2023/02/06 12:06:38;;;;;;;131.60;63.70;;;;;;;-0.02;87.02;102991.20;105333;1262;99287;-84
2023/02/06 12:09:23;;;;;;;129.10;67.30;;;;;;;0.01;87.01;102988.13;106051;1262;99027;-82
2023/02/06 12:12:34;;;;;;;126.50;64.60;;;;;;;0.04;87.04;102991.34;105760;1269;97997;-80
2023/02/06 12:15:31;;;;;;;121.70;55.30;;;;;;;0.09;87.08;102990.07;105955;1263;98022;-82
2023/02/06 12:18:16;;;;;;;115.20;55.80;;;;;;;0.10;86.76;102985.48;105662;1262;102733;-81
2023/02/06 12:21:06;;;;;;;119.30;57.30;;;;;;;0.09;86.76;102985.32;105913;1264;100872;-84
2023/02/06 12:23:59;;;;;;;113.30;55.20;;;;;;;0.14;86.92;102975.67;105646;1262;98095;-84
2023/02/06 12:26:46;;;;;;;120.50;53.50;;;;;;;0.17;86.90;102971.64;105403;1268;98006;-80
2023/02/06 12:29:36;;;;;;;137.00;58.90;;;;;;;0.20;86.74;102976.27;105347;1267;98476;-81
2023/02/06 12:32:37;;;;;;;203.40;91.00;;;;;;;0.22;86.78;102977.42;105136;1269;102313;-84
2023/02/06 12:35:32;;;;;;;165.60;81.50;;;;;;;0.25;86.63;102980.80;105792;1268;100366;-78
2023/02/06 12:38:45;;;;;;;151.30;67.10;;;;;;;0.25;86.53;102980.44;105318;1267;99257;-78